Time;durP1;ratioP1;P1;durP2;ratioP2;P2;SDS_P1;SDS_P2;PMS_P1;PMS_P2;Temp;Humidity;BMP_temperature;BMP_pressure;BME280_temperature;BME280_humidity;BME280_pressure;Samples;Min_cycle;Max_cycle;Signal;HPM_P1;HPM_P2
2020/12/13 00:01:49;;;;;;;36.03;19.92;;;7.40;94.10;;;;;;5007958;28;20109;-88
2020/12/13 00:04:17;;;;;;;39.95;20.83;;;7.40;94.20;;;;;;4999307;28;20381;-88
2020/12/13 00:06:43;;;;;;;34.50;19.77;;;7.40;94.10;;;;;;4998245;28;20022;-88
2020/12/13 00:09:13;;;;;;;36.38;18.38;;;7.30;94.10;;;;;;5032574;28;20040;-88
2020/12/13 00:11:49;;;;;;;35.72;18.30;;;7.30;94.10;;;;;;5008315;28;20452;-88
2020/12/13 00:14:17;;;;;;;35.67;19.92;;;7.30;94.20;;;;;;4990775;28;20053;-88
2020/12/13 00:16:45;;;;;;;41.05;21.13;;;7.30;94.20;;;;;;5013845;28;20125;-88
2020/12/13 00:19:15;;;;;;;37.22;19.52;;;7.30;94.20;;;;;;5005221;28;20037;-91
2020/12/13 00:21:41;;;;;;;36.40;19.20;;;7.30;94.20;;;;;;5057160;28;20058;-87
2020/12/13 00:24:09;;;;;;;41.38;20.33;;;7.20;94.20;;;;;;5015425;28;20034;-89
2020/12/13 00:26:46;;;;;;;37.05;18.92;;;7.20;94.20;;;;;;5005948;28;20760;-88
2020/12/13 00:29:29;;;;;;;38.65;19.90;;;7.20;94.20;;;;;;5001643;28;20380;-90
2020/12/13 00:31:57;;;;;;;37.55;20.85;;;7.20;94.20;;;;;;4991008;28;20072;-89
2020/12/13 00:37:23;;;;;;;44.33;20.80;;;7.20;94.20;;;;;;5010796;28;20038;-89
2020/12/13 00:40:01;;;;;;;39.47;20.38;;;7.20;94.20;;;;;;5019305;28;20026;-87
2020/12/13 00:42:40;;;;;;;41.83;19.52;;;7.20;94.20;;;;;;5013894;28;20034;-88
2020/12/13 00:45:06;;;;;;;42.03;21.02;;;7.20;94.30;;;;;;5002531;28;20038;-88
2020/12/13 00:47:46;;;;;;;;;;;;;;;;;;;;;
2020/12/13 00:50:20;;;;;;;37.75;19.73;;;7.20;94.30;;;;;;5003008;28;20030;-88
2020/12/13 00:53:01;;;;;;;;;;;;;;;;;;;;;
2020/12/13 00:55:29;;;;;;;43.40;20.80;;;7.20;94.40;;;;;;5008483;28;20056;-87
2020/12/13 00:58:02;;;;;;;42.30;21.15;;;7.20;94.40;;;;;;5005725;28;20057;-88
2020/12/13 01:00:46;;;;;;;;;;;;;;;;;;;;;
2020/12/13 01:03:19;;;;;;;43.28;21.38;;;7.20;94.40;;;;;;5011514;28;20048;-89
2020/12/13 01:05:51;;;;;;;47.67;23.05;;;7.20;94.40;;;;;;5018272;28;20030;-88
2020/12/13 01:08:21;;;;;;;;;;;7.20;94.40;;;;;;5016420;28;20057;-89
2020/12/13 01:10:57;;;;;;;36.75;20.55;;;7.20;94.40;;;;;;5039392;28;19913;-90
2020/12/13 01:13:33;;;;;;;;;;;;;;;;;;;;;
2020/12/13 01:16:01;;;;;;;42.67;20.75;;;7.20;94.40;;;;;;5008848;28;20026;-88
2020/12/13 01:18:50;;;;;;;38.10;20.48;;;7.20;94.40;;;;;;5000396;28;20034;-87
2020/12/13 01:21:25;;;;;;;35.22;19.35;;;7.20;94.40;;;;;;5033634;28;20053;-87
2020/12/13 01:24:09;;;;;;;39.33;19.83;;;7.20;94.40;;;;;;5013365;28;20029;-87
2020/12/13 01:26:49;;;;;;;36.47;19.63;;;7.20;94.40;;;;;;5007448;28;20427;-88
2020/12/13 01:29:18;;;;;;;36.45;19.85;;;7.20;94.40;;;;;;5015774;28;20039;-89
2020/12/13 01:31:53;;;;;;;34.17;18.83;;;7.20;94.30;;;;;;5003125;28;20083;-87
2020/12/13 01:34:50;;;;;;;33.85;18.20;;;7.20;94.40;;;;;;5010671;28;20034;-90
2020/12/13 01:37:19;;;;;;;37.88;18.75;;;7.20;94.30;;;;;;4990283;28;20034;-88
2020/12/13 01:39:47;;;;;;;36.20;19.17;;;7.20;94.30;;;;;;4995685;28;20036;-87
2020/12/13 01:42:12;;;;;;;32.47;18.13;;;7.20;94.30;;;;;;4994235;28;20033;-88
2020/12/13 01:44:49;;;;;;;30.02;16.75;;;7.20;94.30;;;;;;4991375;28;20105;-87
2020/12/13 01:47:24;;;;;;;32.22;17.67;;;7.20;94.30;;;;;;4997981;28;20037;-88
2020/12/13 01:49:52;;;;;;;33.03;19.20;;;7.20;94.30;;;;;;5011624;28;20184;-87
2020/12/13 01:55:16;;;;;;;;;;;;;;;;;;;;;
2020/12/13 01:57:55;;;;;;;33.15;18.92;;;7.20;94.30;;;;;;5012118;28;20036;-88
2020/12/13 02:00:29;;;;;;;31.27;17.92;;;7.20;94.30;;;;;;5011968;28;20416;-90
2020/12/13 02:03:10;;;;;;;30.63;17.73;;;7.20;94.30;;;;;;5016381;28;20113;-87
2020/12/13 02:05:50;;;;;;;31.25;17.30;;;7.20;94.30;;;;;;5009869;28;20066;-87
2020/12/13 02:11:32;;;;;;;30.35;16.83;;;7.20;94.30;;;;;;5015779;28;20092;-88
2020/12/13 02:14:18;;;;;;;29.58;16.55;;;7.20;94.20;;;;;;5024922;28;20029;-88
2020/12/13 02:17:09;;;;;;;30.15;17.50;;;7.20;94.20;;;;;;4995704;28;20083;-87
2020/12/13 02:19:58;;;;;;;26.90;16.33;;;7.20;94.20;;;;;;5046103;28;20058;-89
2020/12/13 02:22:27;;;;;;;29.75;17.25;;;7.20;94.20;;;;;;5013905;28;20285;-89
2020/12/13 02:25:21;;;;;;;27.77;16.58;;;7.20;94.20;;;;;;5014051;28;20061;-87
2020/12/13 02:28:05;;;;;;;28.23;16.85;;;7.20;94.20;;;;;;5010950;28;20030;-89
2020/12/13 02:30:43;;;;;;;;;;;;;;;;;;;;;
2020/12/13 02:33:37;;;;;;;32.22;17.15;;;7.20;94.20;;;;;;5015050;28;20034;-88
2020/12/13 02:36:16;;;;;;;37.53;19.02;;;7.20;94.20;;;;;;5011793;28;20033;-88
2020/12/13 02:38:45;;;;;;;36.47;18.75;;;7.20;94.20;;;;;;5010850;28;20482;-88
2020/12/13 02:41:11;;;;;;;35.03;18.38;;;7.20;94.20;;;;;;5013183;28;20429;-89
2020/12/13 02:43:37;;;;;;;36.85;19.02;;;7.20;94.20;;;;;;5009488;28;20030;-88
2020/12/13 02:46:18;;;;;;;;;;;;;;;;;;;;;
2020/12/13 02:48:49;;;;;;;31.92;17.08;;;7.20;94.20;;;;;;5003028;28;20225;-89
2020/12/13 02:51:18;;;;;;;36.92;17.63;;;7.20;94.20;;;;;;5007208;28;20026;-89
2020/12/13 02:53:48;;;;;;;40.38;19.55;;;7.20;94.20;;;;;;5000895;28;20107;-89
2020/12/13 02:56:17;;;;;;;44.30;20.45;;;7.20;94.20;;;;;;5010750;28;20457;-88
2020/12/13 02:58:48;;;;;;;45.22;19.75;;;7.20;94.20;;;;;;5010581;28;20022;-88
2020/12/13 03:01:40;;;;;;;41.90;20.98;;;7.20;94.20;;;;;;4998779;28;20041;-88
2020/12/13 03:04:16;;;;;;;;;;;;;;;;;;;;;
2020/12/13 03:09:41;;;;;;;;;;;;;;;;;;;;;
2020/12/13 03:12:14;;;;;;;39.70;18.90;;;7.20;94.20;;;;;;5014954;28;20044;-89
2020/12/13 03:14:42;;;;;;;42.80;19.60;;;7.20;94.20;;;;;;5010824;28;20080;-88
2020/12/13 03:17:08;;;;;;;38.05;18.00;;;7.20;94.20;;;;;;4997328;28;20037;-87
2020/12/13 03:19:36;;;;;;;51.97;20.73;;;7.20;94.20;;;;;;4997849;28;20383;-89
2020/12/13 03:22:10;;;;;;;43.63;19.60;;;7.30;94.30;;;;;;5012572;28;20061;-88
2020/12/13 03:24:41;;;;;;;38.90;19.00;;;7.20;94.20;;;;;;4998059;28;20113;-88
2020/12/13 03:27:14;;;;;;;39.03;18.48;;;7.30;94.20;;;;;;4995840;28;20025;-89
2020/12/13 03:29:45;;;;;;;39.97;18.90;;;7.30;94.20;;;;;;4998811;28;20053;-89
2020/12/13 03:32:21;;;;;;;37.10;18.63;;;7.30;94.20;;;;;;4999611;28;20117;-88
2020/12/13 03:34:51;;;;;;;35.25;17.10;;;7.30;94.20;;;;;;4995886;28;20293;-88
2020/12/13 03:37:20;;;;;;;36.70;17.67;;;7.30;94.20;;;;;;4995553;28;20072;-88
2020/12/13 03:39:48;;;;;;;35.40;16.60;;;7.30;94.20;;;;;;5030673;28;20030;-88
2020/12/13 03:42:29;;;;;;;32.00;15.98;;;7.30;94.20;;;;;;4999823;28;20041;-88
2020/12/13 03:44:58;;;;;;;33.17;17.10;;;7.30;94.20;;;;;;5010130;28;20069;-89
2020/12/13 03:47:36;;;;;;;;;;;;;;;;;;;;;
2020/12/13 03:50:13;;;;;;;33.97;16.13;;;7.30;94.20;;;;;;5008824;28;20036;-88
2020/12/13 03:52:44;;;;;;;34.78;17.38;;;7.30;94.20;;;;;;4992616;28;20026;-91
2020/12/13 03:55:14;;;;;;;34.40;17.70;;;7.30;94.20;;;;;;4994794;28;20392;-89
2020/12/13 03:57:53;;;;;;;34.60;16.60;;;7.30;94.20;;;;;;4990137;28;20022;-90
2020/12/13 04:00:31;;;;;;;31.35;15.70;;;7.30;94.20;;;;;;5007618;28;20365;-88
2020/12/13 04:03:12;;;;;;;28.23;14.80;;;7.30;94.10;;;;;;5031170;28;20038;-88
2020/12/13 04:05:42;;;;;;;30.15;15.45;;;7.30;94.10;;;;;;5025934;28;20055;-88
2020/12/13 04:08:20;;;;;;;;;;;;;;;;;;;;;
2020/12/13 04:10:51;;;;;;;31.60;16.38;;;7.30;94.10;;;;;;5035744;28;20044;-88
2020/12/13 04:13:33;;;;;;;33.47;16.48;;;7.30;94.10;;;;;;5005874;28;20181;-88
2020/12/13 04:16:08;;;;;;;33.70;16.13;;;7.30;94.10;;;;;;5023953;28;20058;-88
2020/12/13 04:18:43;;;;;;;30.30;16.42;;;7.30;94.10;;;;;;4989798;28;20030;-87
2020/12/13 04:21:26;;;;;;;29.27;15.70;;;7.30;94.10;;;;;;4997632;28;20142;-87
2020/12/13 04:23:53;;;;;;;31.15;15.57;;;7.30;94.10;;;;;;5011973;28;20029;-89
2020/12/13 04:26:44;;;;;;;32.10;16.60;;;7.30;94.10;;;;;;5010550;28;20057;-88
2020/12/13 04:29:10;;;;;;;33.97;17.02;;;7.30;94.10;;;;;;5013569;28;20130;-88
2020/12/13 04:31:36;;;;;;;33.38;17.50;;;7.30;94.10;;;;;;5007962;28;20124;-89
2020/12/13 04:34:14;;;;;;;;;;;;;;;;;;;;;
2020/12/13 04:36:51;;;;;;;33.63;16.83;;;7.30;94.00;;;;;;5000077;28;20029;-88
2020/12/13 04:39:23;;;;;;;32.13;17.48;;;7.30;94.00;;;;;;5005033;28;20442;-88
2020/12/13 04:42:08;;;;;;;29.30;16.23;;;7.30;94.00;;;;;;5018303;28;20026;-91
2020/12/13 04:44:38;;;;;;;33.60;16.63;;;7.30;94.00;;;;;;5006048;28;20463;-88
2020/12/13 04:47:10;;;;;;;34.15;17.65;;;7.30;94.00;;;;;;5004902;28;20052;-89
2020/12/13 04:49:38;;;;;;;33.88;17.88;;;7.30;94.00;;;;;;5001918;28;20030;-87
2020/12/13 04:52:08;;;;;;;34.17;17.90;;;7.40;94.10;;;;;;5014788;28;20045;-87
2020/12/13 04:54:49;;;;;;;;;;;;;;;;;;;;;
2020/12/13 04:57:32;;;;;;;32.85;18.58;;;7.40;94.00;;;;;;5013795;28;20105;-90
2020/12/13 05:00:26;;;;;;;28.60;16.90;;;7.40;94.10;;;;;;5006678;28;20026;-89
2020/12/13 05:03:07;;;;;;;32.78;18.50;;;7.40;94.10;;;;;;5005997;28;20034;-90
2020/12/13 05:06:01;;;;;;;33.78;17.88;;;7.40;94.10;;;;;;5011306;28;20026;-88
2020/12/13 05:08:35;;;;;;;31.27;18.75;;;7.40;94.10;;;;;;5007641;28;20114;-87
2020/12/13 05:11:26;;;;;;;31.25;18.40;;;7.40;94.00;;;;;;4996279;28;20049;-89
2020/12/13 05:14:05;;;;;;;;;;;;;;;;;;;;;
2020/12/13 05:16:33;;;;;;;36.40;20.13;;;7.50;94.10;;;;;;5013860;28;20022;-87
2020/12/13 05:19:08;;;;;;;34.55;20.73;;;7.50;94.10;;;;;;5011448;28;20037;-88
2020/12/13 05:21:46;;;;;;;33.90;19.48;;;7.50;94.10;;;;;;5010535;28;20057;-87
2020/12/13 05:24:20;;;;;;;30.38;18.42;;;7.50;94.00;;;;;;5007591;28;20538;-88
2020/12/13 05:27:22;;;;;;;30.55;18.55;;;7.50;94.10;;;;;;4980457;28;20064;-88
2020/12/13 05:30:04;;;;;;;34.10;18.75;;;7.60;94.10;;;;;;4997084;28;20034;-88
2020/12/13 05:32:36;;;;;;;33.45;18.98;;;7.60;94.10;;;;;;5007307;28;20066;-88
2020/12/13 05:35:18;;;;;;;;;;;7.60;94.10;;;;;;5011436;28;20029;-87
2020/12/13 05:37:46;;;;;;;34.40;20.40;;;7.60;94.10;;;;;;5013558;28;19959;-89
2020/12/13 05:40:37;;;;;;;;;;;;;;;;;;;;;
2020/12/13 05:43:27;;;;;;;31.70;19.65;;;7.70;94.10;;;;;;5003276;28;20029;-87
2020/12/13 05:53:44;;;;;;;30.45;18.70;;;7.80;94.20;;;;;;5017089;28;20069;-88
2020/12/13 05:56:18;;;;;;;35.33;20.60;;;7.80;94.20;;;;;;5016885;28;20028;-89
2020/12/13 05:59:17;;;;;;;;;;;;;;;;;;;;;
2020/12/13 06:01:55;;;;;;;30.02;19.33;;;7.80;94.20;;;;;;5002542;28;20502;-88
2020/12/13 06:04:44;;;;;;;;;;;;;;;;;;;;;
2020/12/13 06:07:24;;;;;;;28.15;18.25;;;7.80;94.30;;;;;;5016439;28;20025;-89
2020/12/13 06:10:07;;;;;;;28.75;18.13;;;7.90;94.30;;;;;;5015613;28;20037;-88
2020/12/13 06:12:40;;;;;;;31.95;18.85;;;7.80;94.20;;;;;;5014811;28;20108;-89
2020/12/13 06:15:37;;;;;;;29.23;18.60;;;7.90;94.30;;;;;;5015356;28;20042;-89
2020/12/13 06:18:17;;;;;;;30.27;17.92;;;7.90;94.30;;;;;;5016179;28;20022;-89
2020/12/13 06:21:08;;;;;;;;;;;;;;;;;;;;;
2020/12/13 06:24:10;;;;;;;29.90;18.77;;;7.90;94.30;;;;;;5008913;28;20038;-89
2020/12/13 06:26:51;;;;;;;25.80;17.33;;;7.90;94.30;;;;;;4998614;28;20030;-89
2020/12/13 06:29:29;;;;;;;29.23;18.00;;;7.90;94.30;;;;;;5013540;28;20483;-92
2020/12/13 06:32:02;;;;;;;27.35;17.20;;;7.90;94.30;;;;;;5007171;28;20030;-89
2020/12/13 06:34:33;;;;;;;29.17;17.48;;;7.90;94.30;;;;;;5005170;28;20033;-88
2020/12/13 06:37:03;;;;;;;;;;;7.90;94.40;;;;;;5009367;28;20023;-90
2020/12/13 06:39:36;;;;;;;30.77;19.38;;;7.90;94.40;;;;;;4997599;28;19921;-88
2020/12/13 06:42:04;;;;;;;28.63;19.20;;;7.90;94.40;;;;;;5004152;28;20041;-90
2020/12/13 06:44:37;;;;;;;31.42;17.92;;;7.90;94.40;;;;;;5020460;28;20030;-89
2020/12/13 06:47:24;;;;;;;28.70;17.65;;;8.00;94.40;;;;;;5012754;28;20017;-88
2020/12/13 06:49:55;;;;;;;29.00;18.55;;;8.00;94.40;;;;;;5008980;28;20010;-88
2020/12/13 06:52:36;;;;;;;28.27;17.80;;;7.90;94.30;;;;;;5005066;28;20102;-90
2020/12/13 06:55:11;;;;;;;30.35;18.08;;;8.00;94.40;;;;;;5000180;28;20022;-88
2020/12/13 06:57:39;;;;;;;27.67;17.23;;;8.00;94.40;;;;;;5014018;28;20037;-91
2020/12/13 07:00:26;;;;;;;32.50;17.42;;;8.00;94.40;;;;;;5006239;28;20022;-88
2020/12/13 07:03:01;;;;;;;28.70;18.50;;;8.00;94.40;;;;;;4988978;28;20042;-89
2020/12/13 07:05:46;;;;;;;25.35;17.73;;;8.00;94.40;;;;;;5013939;28;20040;-89
2020/12/13 07:08:23;;;;;;;29.42;18.80;;;8.00;94.40;;;;;;5007305;28;20093;-90
2020/12/13 07:11:03;;;;;;;29.38;17.85;;;8.00;94.40;;;;;;5014435;28;20076;-89
2020/12/13 07:16:59;;;;;;;;;;;;;;;;;;;;;
2020/12/13 07:19:32;;;;;;;28.20;17.52;;;8.00;94.40;;;;;;5010898;28;20382;-88
2020/12/13 07:22:11;;;;;;;31.33;16.98;;;8.00;94.40;;;;;;4479519;28;15156141;-89
2020/12/13 07:25:05;;;;;;;28.17;17.48;;;8.00;94.50;;;;;;5012034;28;20443;-88
2020/12/13 07:27:38;;;;;;;26.42;16.80;;;8.00;94.50;;;;;;5005382;28;20084;-88
2020/12/13 07:30:13;;;;;;;26.50;16.23;;;8.00;94.40;;;;;;4995664;28;20030;-89
2020/12/13 07:33:14;;;;;;;;;;;;;;;;;;;;;
2020/12/13 07:35:50;;;;;;;22.98;16.25;;;8.00;94.50;;;;;;5017321;28;20089;-88
2020/12/13 07:38:39;;;;;;;24.35;15.50;;;8.00;94.50;;;;;;4994352;28;20034;-90
2020/12/13 07:41:47;;;;;;;25.55;15.98;;;8.00;94.50;;;;;;4998931;28;20030;-89
2020/12/13 07:44:21;;;;;;;26.63;16.50;;;8.00;94.50;;;;;;4934452;29;20119;-88
2020/12/13 07:47:13;;;;;;;;;;;;;;;;;;;;;
2020/12/13 07:50:05;;;;;;;28.67;18.15;;;8.00;94.40;;;;;;5016791;28;20026;-88
2020/12/13 07:52:46;;;;;;;31.05;18.50;;;8.00;94.40;;;;;;4992427;28;20084;-88
2020/12/13 07:55:30;;;;;;;;;;;;;;;;;;;;;
2020/12/13 07:58:06;;;;;;;25.20;16.35;;;8.00;94.40;;;;;;5027456;28;20035;-89
2020/12/13 08:00:41;;;;;;;24.80;16.88;;;8.10;94.40;;;;;;5014152;28;20407;-88
2020/12/13 08:03:19;;;;;;;26.67;17.58;;;8.00;94.40;;;;;;4996200;28;20507;-89
2020/12/13 08:05:59;;;;;;;25.70;15.95;;;8.10;94.50;;;;;;5013064;28;20018;-89
2020/12/13 08:08:56;;;;;;;25.38;17.10;;;8.00;94.40;;;;;;5007647;28;20030;-90
2020/12/13 08:11:35;;;;;;;25.83;17.67;;;8.00;94.40;;;;;;5025558;28;20372;-89
2020/12/13 08:14:06;;;;;;;25.70;17.08;;;8.10;94.40;;;;;;4995782;28;20112;-89
2020/12/13 08:16:58;;;;;;;22.42;16.83;;;8.00;94.40;;;;;;5012523;28;20032;-89
2020/12/13 08:19:55;;;;;;;23.00;15.93;;;8.00;94.40;;;;;;4993256;28;20499;-88
2020/12/13 08:22:36;;;;;;;21.23;15.85;;;8.00;94.40;;;;;;4992687;28;20539;-87
2020/12/13 08:25:25;;;;;;;24.60;16.80;;;8.00;94.40;;;;;;5008314;28;20105;-89
2020/12/13 08:28:47;;;;;;;;;;;;;;;;;;;;;
2020/12/13 08:31:28;;;;;;;35.50;22.15;;;8.00;94.40;;;;;;4999766;28;20038;-89
2020/12/13 08:34:38;;;;;;;30.02;18.88;;;8.00;94.50;;;;;;4993925;28;20029;-89
2020/12/13 08:37:39;;;;;;;25.58;17.38;;;8.00;94.50;;;;;;5010079;28;20022;-89
2020/12/13 08:40:53;;;;;;;21.90;15.38;;;8.10;94.50;;;;;;5000998;28;20038;-90
2020/12/13 08:44:19;;;;;;;20.50;15.45;;;8.00;94.50;;;;;;5012252;28;20046;-87
2020/12/13 08:47:20;;;;;;;;;;;;;;;;;;;;;
2020/12/13 08:53:41;;;;;;;19.65;13.63;;;8.00;94.50;;;;;;4984660;28;20474;-90
2020/12/13 09:00:17;;;;;;;;;;;;;;;;;;;;;
2020/12/13 09:06:13;;;;;;;;;;;;;;;;;;;;;
2020/12/13 09:12:54;;;;;;;19.38;13.35;;;8.00;94.40;;;;;;5017184;28;20117;-89
2020/12/13 09:15:31;;;;;;;21.70;15.35;;;8.00;94.40;;;;;;5001510;28;20030;-89
2020/12/13 09:18:15;;;;;;;20.20;14.15;;;8.00;94.40;;;;;;5006640;28;20033;-89
2020/12/13 09:21:08;;;;;;;19.27;13.70;;;8.00;94.40;;;;;;4977931;28;20038;-89
2020/12/13 09:23:59;;;;;;;20.45;14.60;;;8.00;94.40;;;;;;4981281;28;20050;-89
2020/12/13 09:26:37;;;;;;;25.88;15.02;;;8.00;94.40;;;;;;4999239;28;20038;-88
2020/12/13 09:29:14;;;;;;;21.17;15.68;;;8.10;94.40;;;;;;4997387;28;20057;-87
2020/12/13 09:31:43;;;;;;;24.60;15.68;;;8.00;94.40;;;;;;5011303;28;20034;-87
2020/12/13 09:34:41;;;;;;;23.30;17.00;;;8.10;94.40;;;;;;5007509;28;20101;-91
2020/12/13 09:37:17;;;;;;;19.40;15.35;;;8.00;94.40;;;;;;5013135;28;20022;-89
2020/12/13 09:39:54;;;;;;;33.60;20.33;;;8.10;94.40;;;;;;5007104;28;20490;-89
2020/12/13 09:42:51;;;;;;;29.13;19.60;;;8.10;94.40;;;;;;5012670;28;20365;-88
2020/12/13 09:48:45;;;;;;;;;;;;;;;;;;;;;
2020/12/13 09:51:57;;;;;;;26.55;17.42;;;8.10;94.50;;;;;;5011287;28;20036;-89
2020/12/13 09:54:36;;;;;;;;;;;;;;;;;;;;;
2020/12/13 09:57:25;;;;;;;;;;;;;;;;;;;;;
2020/12/13 10:00:50;;;;;;;34.63;21.92;;;8.10;94.40;;;;;;5009761;28;20034;-88
2020/12/13 10:10:00;;;;;;;;;;;;;;;;;;;;;
2020/12/13 10:12:55;;;;;;;35.85;22.10;;;8.10;94.40;;;;;;4997860;28;20032;-89
2020/12/13 10:15:57;;;;;;;;;;;;;;;;;;;;;
2020/12/13 10:19:09;;;;;;;31.65;23.02;;;8.20;94.40;;;;;;5012972;28;20036;-89
2020/12/13 10:21:50;;;;;;;35.35;23.38;;;8.10;94.40;;;;;;5005206;28;20056;-88
2020/12/13 10:24:29;;;;;;;37.05;24.38;;;8.20;94.40;;;;;;5026833;28;20723;-88
2020/12/13 10:27:36;;;;;;;;;;;;;;;;;;;;;
2020/12/13 10:30:15;;;;;;;;;;;;;;;;;;;;;
2020/12/13 10:32:53;;;;;;;39.03;25.23;;;8.20;94.40;;;;;;5003124;28;20030;-88
2020/12/13 10:35:21;;;;;;;35.90;24.08;;;8.20;94.40;;;;;;4996366;28;20084;-89
2020/12/13 10:38:33;;;;;;;;;;;;;;;;;;;;;
2020/12/13 10:41:59;;;;;;;;;;;;;;;;;;;;;
2020/12/13 10:44:33;;;;;;;35.78;23.35;;;8.20;94.30;;;;;;4999866;28;20042;-86
2020/12/13 10:47:17;;;;;;;;;;;;;;;;;;;;;
2020/12/13 10:49:48;;;;;;;32.63;22.90;;;8.30;94.30;;;;;;5003048;28;20066;-86
2020/12/13 10:52:43;;;;;;;;;;;;;;;;;;;;;
2020/12/13 10:55:32;;;;;;;;;;;;;;;;;;;;;
2020/12/13 10:58:24;;;;;;;34.40;22.33;;;8.30;94.30;;;;;;5028137;28;20034;-86
2020/12/13 11:07:10;;;;;;;30.48;20.83;;;8.40;94.30;;;;;;5017768;28;20069;-86
2020/12/13 11:10:01;;;;;;;29.50;19.85;;;8.40;94.30;;;;;;4999225;28;20116;-86
2020/12/13 11:13:20;;;;;;;;;;;;;;;;;;;;;
2020/12/13 11:16:10;;;;;;;24.70;18.58;;;8.40;94.10;;;;;;5004695;28;20034;-85
2020/12/13 11:18:44;;;;;;;24.65;15.57;;;8.40;94.10;;;;;;5010029;28;20022;-86
2020/12/13 11:21:26;;;;;;;;;;;;;;;;;;;;;
2020/12/13 11:23:56;;;;;;;;;;;8.40;94.10;;;;;;5009653;28;20361;-87
2020/12/13 11:26:31;;;;;;;23.20;13.48;;;8.40;94.10;;;;;;4996374;28;19914;-86
2020/12/13 11:29:20;;;;;;;15.65;11.98;;;8.40;94.10;;;;;;5011026;28;20025;-86
2020/12/13 11:32:05;;;;;;;21.02;11.30;;;8.40;94.10;;;;;;5025260;28;20472;-86
2020/12/13 11:34:40;;;;;;;14.50;11.50;;;8.40;94.10;;;;;;5010225;28;20037;-87
2020/12/13 11:37:07;;;;;;;19.23;12.52;;;8.40;94.10;;;;;;5006645;28;20042;-86
2020/12/13 11:39:44;;;;;;;;;;;;;;;;;;;;;
2020/12/13 11:42:18;;;;;;;15.73;10.48;;;8.50;94.10;;;;;;5006376;28;20051;-87
2020/12/13 11:45:00;;;;;;;17.35;10.25;;;8.50;94.00;;;;;;4992212;28;20034;-86
2020/12/13 11:47:36;;;;;;;19.52;9.77;;;8.50;94.00;;;;;;4997056;28;20034;-88
2020/12/13 11:50:10;;;;;;;16.77;9.10;;;8.50;93.90;;;;;;4979663;28;20117;-86
2020/12/13 11:53:01;;;;;;;;;;;;;;;;;;;;;
2020/12/13 11:55:30;;;;;;;20.98;12.50;;;8.50;93.90;;;;;;5012559;28;20026;-86
2020/12/13 11:58:05;;;;;;;19.08;10.52;;;8.50;93.90;;;;;;5005874;28;20464;-86
2020/12/13 12:00:34;;;;;;;15.35;8.80;;;8.60;93.90;;;;;;5008712;28;20030;-89
2020/12/13 12:03:00;;;;;;;13.98;7.45;;;8.60;93.80;;;;;;5005785;28;20562;-89
2020/12/13 12:05:56;;;;;;;12.70;6.93;;;8.60;93.80;;;;;;5009691;28;20435;-87
2020/12/13 12:08:45;;;;;;;11.40;5.80;;;8.60;93.70;;;;;;5021806;28;20025;-90
2020/12/13 12:11:19;;;;;;;10.93;6.10;;;8.60;93.60;;;;;;5022880;28;20026;-89
2020/12/13 12:13:55;;;;;;;12.95;5.93;;;8.60;93.50;;;;;;5008912;28;20383;-87
2020/12/13 12:16:43;;;;;;;;;;;;;;;;;;;;;
2020/12/13 12:19:18;;;;;;;10.88;5.45;;;8.60;93.40;;;;;;5013032;28;20038;-90
2020/12/13 12:22:13;;;;;;;10.27;5.40;;;8.60;93.40;;;;;;4975741;28;20049;-88
2020/12/13 12:24:59;;;;;;;9.95;5.82;;;8.60;93.40;;;;;;5011244;28;20084;-89
2020/12/13 12:27:42;;;;;;;9.10;5.28;;;8.60;93.30;;;;;;4983797;28;20034;-87
2020/12/13 12:31:44;;;;;;;;;;;;;;;;;;;;;
2020/12/13 12:34:15;;;;;;;8.80;5.00;;;8.60;93.30;;;;;;4982549;28;20049;-88
2020/12/13 12:39:56;;;;;;;;;;;;;;;;;;;;;
2020/12/13 12:42:58;;;;;;;;;;;;;;;;;;;;;
2020/12/13 12:46:22;;;;;;;9.77;5.25;;;8.50;93.10;;;;;;5006668;28;20038;-89
2020/12/13 12:49:13;;;;;;;;;;;;;;;;;;;;;
2020/12/13 12:52:29;;;;;;;;;;;;;;;;;;;;;
2020/12/13 12:55:29;;;;;;;9.77;4.55;;;8.50;93.10;;;;;;4998633;28;20030;-89
2020/12/13 12:58:14;;;;;;;10.88;5.40;;;8.50;93.20;;;;;;5005408;28;20026;-89
2020/12/13 13:01:15;;;;;;;9.18;4.57;;;8.50;93.20;;;;;;4987337;28;20026;-89
2020/12/13 13:04:22;;;;;;;7.13;4.70;;;8.50;93.10;;;;;;5012100;28;20108;-89
2020/12/13 13:13:10;;;;;;;26.80;16.40;;;8.40;93.00;;;;;;5004176;28;20038;-90
2020/12/13 13:18:51;;;;;;;;;;;;;;;;;;;;;
2020/12/13 13:24:59;;;;;;;9.50;5.10;;;8.30;93.00;;;;;;4926111;29;20031;-88
2020/12/13 13:27:44;;;;;;;8.50;5.10;;;8.30;93.00;;;;;;4910440;29;20020;-87
2020/12/13 13:30:32;;;;;;;9.15;4.93;;;8.30;93.00;;;;;;4971470;28;20044;-88
2020/12/13 13:33:27;;;;;;;10.20;5.03;;;8.30;93.00;;;;;;5006863;28;20087;-89
2020/12/13 13:36:33;;;;;;;8.70;4.45;;;8.30;92.90;;;;;;5015498;28;20120;-89
2020/12/13 13:38:53;;;;;;;7.38;4.88;;;8.30;92.90;;;;;;5010043;28;20038;-87
2020/12/13 13:42:19;;;;;;;7.78;5.13;;;8.30;92.90;;;;;;5003272;28;20479;-91
2020/12/13 13:45:32;;;;;;;8.30;4.30;;;8.30;92.90;;;;;;5027610;28;20035;-89
2020/12/13 13:51:43;;;;;;;;;;;;;;;;;;;;;
2020/12/13 13:54:36;;;;;;;;;;;8.20;92.90;;;;;;5007975;28;20057;-87
2020/12/13 14:00:32;;;;;;;8.10;5.15;;;8.20;93.00;;;;;;4995981;28;20137;-89
2020/12/13 14:07:16;;;;;;;;;;;;;;;;;;;;;
2020/12/13 14:10:04;;;;;;;11.52;5.28;;;8.10;93.00;;;;;;5011445;28;20496;-88
2020/12/13 14:16:04;;;;;;;;;;;;;;;;;;;;;
2020/12/13 14:19:02;;;;;;;9.50;5.18;;;8.10;92.90;;;;;;5004944;28;20030;-92
2020/12/13 14:26:26;;;;;;;10.93;5.45;;;8.10;92.90;;;;;;4947947;29;20051;-87
2020/12/13 14:28:45;;;;;;;9.57;5.50;;;8.10;92.90;;;;;;4935269;29;20039;-87
2020/12/13 14:35:15;;;;;;;;;;;;;;;;;;;;;
2020/12/13 14:38:13;;;;;;;10.63;4.78;;;8.00;92.90;;;;;;4947830;29;20034;-88
2020/12/13 14:44:24;;;;;;;8.32;3.90;;;8.00;92.90;;;;;;4952895;29;20023;-89
2020/12/13 14:47:45;;;;;;;;;;;;;;;;;;;;;
2020/12/13 14:53:56;;;;;;;;;;;;;;;;;;;;;
2020/12/13 14:56:44;;;;;;;;;;;;;;;;;;;;;
2020/12/13 14:59:52;;;;;;;10.52;3.85;;;7.90;92.80;;;;;;5004416;28;20045;-88
2020/12/13 15:05:45;;;;;;;;;;;;;;;;;;;;;
2020/12/13 15:08:30;;;;;;;6.78;3.80;;;7.80;92.80;;;;;;4970215;28;20173;-88
2020/12/13 15:15:04;;;;;;;8.30;3.63;;;7.80;92.80;;;;;;5013170;28;20084;-86
2020/12/13 15:17:56;;;;;;;6.82;4.20;;;7.80;92.70;;;;;;4996606;28;20047;-87
2020/12/13 15:21:00;;;;;;;;;;;;;;;;;;;;;
2020/12/13 15:23:36;;;;;;;9.70;5.00;;;7.80;92.80;;;;;;5006346;28;20064;-87
2020/12/13 15:26:24;;;;;;;8.88;4.35;;;7.70;92.70;;;;;;4993813;28;20038;-87
2020/12/13 15:29:46;;;;;;;8.88;3.83;;;7.70;92.70;;;;;;5006338;28;20068;-89
2020/12/13 15:32:19;;;;;;;;;;;7.60;92.70;;;;;;5021053;28;20030;-89
2020/12/13 15:35:17;;;;;;;7.72;3.50;;;7.60;92.70;;;;;;5006765;28;20278;-88
2020/12/13 15:38:05;;;;;;;7.43;3.88;;;7.60;92.70;;;;;;4989882;28;20566;-86
2020/12/13 15:43:53;;;;;;;6.95;3.63;;;7.50;92.70;;;;;;5004088;28;20379;-87
2020/12/13 15:52:28;;;;;;;;;;;;;;;;;;;;;
2020/12/13 16:04:54;;;;;;;9.02;3.63;;;7.50;92.70;;;;;;4906052;29;20092;-86
2020/12/13 16:10:52;;;;;;;8.50;3.00;;;7.50;92.60;;;;;;4974670;28;20081;-88
2020/12/13 16:13:31;;;;;;;5.55;3.55;;;7.40;92.60;;;;;;4957302;28;20039;-88
2020/12/13 16:16:47;;;;;;;;;;;;;;;;;;;;;
2020/12/13 16:19:24;;;;;;;6.95;3.40;;;7.50;92.60;;;;;;4960990;28;20067;-87
2020/12/13 16:21:59;;;;;;;6.07;3.15;;;7.50;92.60;;;;;;4947231;28;20036;-87
2020/12/13 16:24:46;;;;;;;6.53;3.50;;;7.40;92.50;;;;;;4951019;28;20190;-86
2020/12/13 16:27:16;;;;;;;7.72;3.45;;;7.40;92.50;;;;;;4943100;28;20494;-87
2020/12/13 16:29:55;;;;;;;;;;;;;;;;;;;;;
2020/12/13 16:35:58;;;;;;;6.03;3.28;;;7.40;92.50;;;;;;4978639;28;20056;-87
2020/12/13 16:38:55;;;;;;;7.00;3.25;;;7.40;92.40;;;;;;4971169;28;20040;-87
2020/12/13 16:41:39;;;;;;;6.93;3.08;;;7.40;92.40;;;;;;4981421;28;20060;-87
2020/12/13 16:44:31;;;;;;;;;;;;;;;;;;;;;
2020/12/13 16:47:25;;;;;;;6.70;3.22;;;7.40;92.40;;;;;;4992177;28;20038;-88
2020/12/13 16:56:08;;;;;;;;;;;;;;;;;;;;;
2020/12/13 16:59:03;;;;;;;;;;;;;;;;;;;;;
2020/12/13 17:01:49;;;;;;;;;;;;;;;;;;;;;
2020/12/13 17:04:42;;;;;;;13.82;6.07;;;7.40;92.30;;;;;;5013436;28;20081;-86
2020/12/13 17:07:14;;;;;;;8.60;5.13;;;7.40;92.30;;;;;;4983672;28;20065;-86
2020/12/13 17:09:58;;;;;;;8.50;3.63;;;7.30;92.30;;;;;;4986979;28;20081;-89
2020/12/13 17:12:30;;;;;;;7.35;3.78;;;7.40;92.30;;;;;;4972145;28;20081;-85
2020/12/13 17:15:04;;;;;;;7.47;3.65;;;7.30;92.20;;;;;;4962441;28;20034;-85
2020/12/13 17:17:40;;;;;;;9.40;4.22;;;7.30;92.20;;;;;;4988731;28;20070;-86
2020/12/13 17:20:12;;;;;;;8.82;4.03;;;7.40;92.20;;;;;;4992599;28;20084;-86
2020/12/13 17:22:40;;;;;;;9.15;3.53;;;7.30;92.10;;;;;;4975674;28;20517;-86
2020/12/13 17:25:11;;;;;;;10.10;5.55;;;7.30;92.00;;;;;;5025903;28;20120;-87
2020/12/13 17:27:49;;;;;;;9.48;5.32;;;7.30;92.00;;;;;;4994226;28;20030;-86
2020/12/13 17:30:18;;;;;;;15.02;5.07;;;7.30;92.00;;;;;;4983959;28;20034;-86
2020/12/13 17:32:49;;;;;;;8.02;3.97;;;7.30;92.00;;;;;;4987795;28;20068;-89
2020/12/13 17:35:27;;;;;;;8.60;4.25;;;7.30;91.90;;;;;;4990390;28;20026;-86
2020/12/13 17:37:58;;;;;;;8.98;3.10;;;7.30;91.90;;;;;;5004035;28;20030;-87